Time;durP1;ratioP1;P1;durP2;ratioP2;P2;SDS_P1;SDS_P2;PMS_P1;PMS_P2;Temp;Humidity;BMP_temperature;BMP_pressure;BME280_temperature;BME280_humidity;BME280_pressure;Samples;Min_cycle;Max_cycle;Signal;HPM_P1;HPM_P2
2024/02/25 00:07:31;;;;;;;27.80;21.20;;;;;;;2.06;100.00;99032.12;451208;1254;139817;-60
2024/02/25 00:17:37;;;;;;;21.60;16.70;;;;;;;2.04;100.00;99019.21;451489;1255;138377;-60
2024/02/25 00:27:43;;;;;;;25.20;19.00;;;;;;;2.03;100.00;99026.15;451405;1253;139380;-60
2024/02/25 00:37:49;;;;;;;27.60;18.80;;;;;;;2.04;100.00;99023.20;451183;1254;139664;-60
2024/02/25 00:47:55;;;;;;;23.00;18.30;;;;;;;2.06;100.00;99023.83;451206;1254;139321;-61
2024/02/25 00:58:02;;;;;;;27.40;20.50;;;;;;;2.07;100.00;99018.95;451172;1255;139896;-60
2024/02/25 01:08:10;;;;;;;27.20;20.30;;;;;;;2.09;100.00;99023.34;451147;1254;139840;-61
2024/02/25 01:18:16;;;;;;;28.50;21.50;;;;;;;2.13;100.00;99022.02;451224;1257;140174;-59
2024/02/25 01:28:22;;;;;;;24.90;20.60;;;;;;;2.21;100.00;99022.72;451166;1253;139704;-60
2024/02/25 01:38:28;;;;;;;30.30;21.80;;;;;;;2.37;100.00;99021.59;451030;1253;140959;-59
2024/02/25 01:48:34;;;;;;;23.70;18.60;;;;;;;2.47;100.00;99006.70;451339;1254;139850;-60
2024/02/25 01:58:41;;;;;;;31.00;22.70;;;;;;;2.54;100.00;98995.69;451041;1253;140069;-60
2024/02/25 02:08:47;;;;;;;23.40;18.20;;;;;;;2.63;100.00;98990.48;451245;1253;140297;-60
2024/02/25 02:18:53;;;;;;;24.20;20.10;;;;;;;2.74;100.00;98992.31;451214;1257;139357;-60
2024/02/25 02:28:59;;;;;;;24.20;18.20;;;;;;;2.84;100.00;98982.55;451112;1253;139991;-60
2024/02/25 02:39:05;;;;;;;25.00;19.60;;;;;;;2.93;100.00;98978.38;451113;1254;140067;-61
2024/02/25 02:49:11;;;;;;;23.90;19.00;;;;;;;2.99;100.00;98980.02;451153;1254;140176;-59
2024/02/25 02:59:18;;;;;;;27.60;19.00;;;;;;;3.05;100.00;98989.13;451314;1254;139542;-61
2024/02/25 03:09:24;;;;;;;19.60;16.00;;;;;;;3.07;100.00;98986.80;451168;1257;141352;-60
2024/02/25 03:19:30;;;;;;;20.30;15.50;;;;;;;3.05;100.00;98980.45;451214;1254;139836;-61
2024/02/25 03:29:36;;;;;;;21.00;16.60;;;;;;;2.94;100.00;98979.38;451153;1254;139878;-60
2024/02/25 03:39:42;;;;;;;18.60;15.00;;;;;;;2.78;100.00;98979.70;451190;1254;139893;-60
2024/02/25 03:49:48;;;;;;;21.80;15.80;;;;;;;2.68;100.00;98981.32;451100;1256;139874;-57
2024/02/25 03:59:54;;;;;;;20.80;16.60;;;;;;;2.70;100.00;98971.21;451252;1254;140125;-58
2024/02/25 04:10:00;;;;;;;19.50;17.10;;;;;;;2.68;100.00;98970.27;451166;1256;140307;-58
2024/02/25 04:20:07;;;;;;;21.10;16.60;;;;;;;2.62;100.00;98963.23;451170;1254;140868;-56
2024/02/25 04:30:15;;;;;;;17.80;13.10;;;;;;;2.56;100.00;98957.10;451348;1254;139980;-57
2024/02/25 04:40:23;;;;;;;21.70;15.40;;;;;;;2.60;100.00;98957.79;451169;1254;140149;-58
2024/02/25 04:50:29;;;;;;;21.20;15.60;;;;;;;2.72;100.00;98961.27;451011;1254;140691;-57
2024/02/25 05:00:35;;;;;;;21.50;13.90;;;;;;;2.77;100.00;98948.95;451204;1254;139942;-59
2024/02/25 05:10:41;;;;;;;15.80;12.20;;;;;;;2.81;100.00;98960.03;451052;1254;139892;-60
2024/02/25 05:20:47;;;;;;;17.70;13.40;;;;;;;2.85;100.00;98966.45;451175;1254;140147;-57
2024/02/25 05:30:55;;;;;;;19.10;15.30;;;;;;;2.77;100.00;98975.95;451246;1254;140001;-57
2024/02/25 05:41:02;;;;;;;17.60;13.80;;;;;;;2.72;100.00;98944.50;451281;1254;139216;-56
2024/02/25 05:51:08;;;;;;;19.00;14.30;;;;;;;2.87;100.00;98958.24;451095;1254;140448;-57
2024/02/25 06:01:14;;;;;;;16.90;13.60;;;;;;;3.00;100.00;98962.19;451106;1254;140430;-59
2024/02/25 06:11:23;;;;;;;16.10;12.90;;;;;;;3.19;100.00;98961.38;451260;1254;139376;-60
2024/02/25 06:21:29;;;;;;;15.20;13.00;;;;;;;3.48;100.00;98949.02;451126;1253;139907;-58
2024/02/25 06:31:35;;;;;;;18.50;15.10;;;;;;;3.88;100.00;98959.31;451182;1253;140761;-57
2024/02/25 06:41:41;;;;;;;19.00;13.90;;;;;;;4.11;100.00;98968.98;447384;1254;5123297;-58
2024/02/25 06:51:47;;;;;;;17.70;14.50;;;;;;;4.15;100.00;98961.89;451168;1254;140706;-56
2024/02/25 07:01:53;;;;;;;17.20;14.60;;;;;;;4.69;100.00;98954.23;451113;1254;140266;-56
2024/02/25 07:11:59;;;;;;;14.80;12.80;;;;;;;7.05;100.00;98953.91;451399;1253;139486;-58
2024/02/25 07:22:07;;;;;;;18.90;14.00;;;;;;;8.25;100.00;98944.76;451163;1253;140360;-57
2024/02/25 07:32:13;;;;;;;19.50;14.10;;;;;;;8.73;100.00;98932.60;451151;1253;140366;-58
2024/02/25 07:42:19;;;;;;;16.30;14.00;;;;;;;13.61;100.00;98901.08;451138;1253;140174;-57
2024/02/25 07:52:25;;;;;;;12.00;10.80;;;;;;;17.68;100.00;98897.86;451084;1254;139847;-59
2024/02/25 08:02:34;;;;;;;11.90;10.70;;;;;;;20.24;100.00;98887.82;451115;1254;139375;-58
2024/02/25 08:12:42;;;;;;;13.00;11.70;;;;;;;21.93;97.49;98884.58;451245;1254;139598;-57
2024/02/25 08:22:49;;;;;;;13.10;11.80;;;;;;;23.21;91.66;98874.23;451226;1253;139427;-58
2024/02/25 08:32:55;;;;;;;12.60;11.40;;;;;;;24.90;86.82;98865.33;451185;1254;139652;-58
2024/02/25 08:43:01;;;;;;;12.60;11.40;;;;;;;27.05;81.67;98854.67;451307;1254;139481;-58
2024/02/25 08:53:07;;;;;;;12.60;11.40;;;;;;;28.20;74.83;98843.41;451046;1254;140161;-57
2024/02/25 09:03:13;;;;;;;11.60;10.50;;;;;;;28.59;69.84;98837.90;451211;1253;139872;-58
2024/02/25 09:13:19;;;;;;;13.90;12.00;;;;;;;29.75;68.57;98824.19;451141;1254;139930;-58
2024/02/25 09:23:25;;;;;;;12.00;10.90;;;;;;;31.03;62.84;98807.71;451235;1253;138756;-58
2024/02/25 09:33:32;;;;;;;13.10;10.80;;;;;;;29.64;54.87;98796.75;451226;1253;139706;-58
2024/02/25 09:43:38;;;;;;;10.70;9.70;;;;;;;24.84;53.00;98777.31;451210;1252;140309;-61
2024/02/25 09:53:46;;;;;;;11.10;9.90;;;;;;;20.02;54.64;98768.88;451381;1254;139857;-60
2024/02/25 10:03:52;;;;;;;12.80;10.00;;;;;;;16.83;57.72;98765.35;451147;1253;139787;-60
2024/02/25 10:13:58;;;;;;;9.00;7.90;;;;;;;14.85;60.85;98758.87;451087;1254;139311;-61
2024/02/25 10:24:07;;;;;;;10.80;9.30;;;;;;;13.64;63.40;98742.64;451219;1254;138937;-60
2024/02/25 10:34:13;;;;;;;7.50;6.00;;;;;;;13.05;65.66;98739.38;451156;1253;138767;-61
2024/02/25 10:44:20;;;;;;;10.50;7.50;;;;;;;12.79;66.27;98727.05;451213;1254;138993;-60
2024/02/25 10:54:28;;;;;;;5.50;3.30;;;;;;;12.59;67.10;98717.36;451314;1254;139209;-60
2024/02/25 11:04:36;;;;;;;6.40;4.30;;;;;;;12.69;66.89;98704.09;451195;1254;139837;-55
2024/02/25 11:14:49;;;;;;;6.50;4.20;;;;;;;12.75;66.22;98689.63;451169;1254;139912;-57
2024/02/25 11:24:55;;;;;;;5.90;2.50;;;;;;;12.70;65.94;98681.50;451097;1254;138854;-57
2024/02/25 11:35:01;;;;;;;5.10;2.60;;;;;;;12.68;65.33;98668.18;451072;1254;139352;-58
2024/02/25 11:45:08;;;;;;;5.30;2.40;;;;;;;12.73;64.58;98667.89;451082;1254;139512;-58
2024/02/25 11:55:15;;;;;;;6.70;2.30;;;;;;;12.88;64.60;98659.71;451060;1254;138997;-58
2024/02/25 12:05:21;;;;;;;6.50;3.70;;;;;;;12.99;64.08;98642.78;451138;1254;139466;-61
2024/02/25 12:15:29;;;;;;;3.70;2.00;;;;;;;13.13;63.77;98630.98;451137;1254;139158;-66
2024/02/25 12:25:35;;;;;;;3.90;2.50;;;;;;;13.47;63.67;98613.92;451336;1252;138368;-66
2024/02/25 12:35:41;;;;;;;5.00;3.00;;;;;;;13.75;63.27;98600.27;451512;1254;138913;-67
2024/02/25 12:45:49;;;;;;;3.40;2.20;;;;;;;13.90;62.66;98595.88;451319;1253;138850;-68
2024/02/25 12:55:57;;;;;;;6.90;2.40;;;;;;;13.94;62.34;98595.89;451397;1254;139404;-64
2024/02/25 13:06:04;;;;;;;4.50;2.10;;;;;;;13.83;61.56;98591.98;451679;1254;138912;-63
2024/02/25 13:16:10;;;;;;;10.20;2.30;;;;;;;13.81;61.33;98582.88;451420;1254;139324;-63
2024/02/25 13:26:16;;;;;;;4.80;2.50;;;;;;;13.80;61.05;98578.58;451339;1254;139931;-63
2024/02/25 13:36:25;;;;;;;2.30;1.50;;;;;;;13.93;59.57;98575.55;451493;1254;139180;-63
2024/02/25 13:46:33;;;;;;;2.70;1.20;;;;;;;14.09;58.42;98572.98;451382;1254;139283;-63
2024/02/25 13:56:38;;;;;;;;;;;;;;;14.06;57.69;98573.14;451495;1255;139134;-67
2024/02/25 14:06:45;;;;;;;3.80;1.40;;;;;;;13.98;57.55;98571.46;451475;1254;125479;-66
2024/02/25 14:16:51;;;;;;;7.80;2.00;;;;;;;13.74;57.45;98571.88;451410;1254;140024;-63
2024/02/25 14:26:57;;;;;;;4.10;2.40;;;;;;;13.45;57.65;98572.05;451306;1254;139217;-63
2024/02/25 14:37:03;;;;;;;6.80;4.60;;;;;;;13.13;58.17;98568.83;451340;1254;139493;-63
2024/02/25 14:47:09;;;;;;;8.30;5.20;;;;;;;12.78;59.31;98559.27;451559;1254;138547;-63
2024/02/25 14:57:15;;;;;;;8.10;5.30;;;;;;;12.59;60.34;98558.00;451425;1253;141059;-64
2024/02/25 15:07:21;;;;;;;8.70;5.80;;;;;;;12.44;61.23;98553.71;451485;1254;140014;-64
2024/02/25 15:17:27;;;;;;;8.80;5.00;;;;;;;12.27;61.89;98548.33;451393;1254;139756;-63
2024/02/25 15:27:33;;;;;;;7.80;3.80;;;;;;;12.05;62.55;98542.62;451599;1254;138938;-66
2024/02/25 15:37:41;;;;;;;5.30;3.70;;;;;;;11.83;63.19;98547.83;451391;1255;138442;-64
2024/02/25 15:47:50;;;;;;;10.40;6.70;;;;;;;11.60;63.84;98545.56;451473;1254;141050;-56
2024/02/25 15:57:56;;;;;;;9.90;6.10;;;;;;;11.41;64.43;98547.84;451413;1254;139055;-58
2024/02/25 16:08:05;;;;;;;9.00;6.40;;;;;;;11.23;64.98;98551.16;451262;1255;138959;-57
2024/02/25 16:18:12;;;;;;;12.90;7.20;;;;;;;11.04;65.66;98559.16;451376;1256;139970;-58
2024/02/25 16:28:18;;;;;;;15.30;8.50;;;;;;;10.80;66.65;98572.95;451276;1253;139149;-58
2024/02/25 16:38:24;;;;;;;7.10;5.50;;;;;;;10.54;67.38;98570.73;451446;1253;139280;-57
2024/02/25 16:48:30;;;;;;;7.50;4.80;;;;;;;10.41;68.11;98566.29;451482;1255;139391;-57
2024/02/25 16:58:37;;;;;;;9.70;6.70;;;;;;;10.35;68.60;98574.05;451356;1253;139734;-57
2024/02/25 17:08:45;;;;;;;11.70;8.90;;;;;;;10.23;69.03;98574.33;451421;1253;139386;-57
2024/02/25 17:18:51;;;;;;;18.70;12.70;;;;;;;10.07;69.55;98578.91;451508;1253;139072;-57
2024/02/25 17:28:58;;;;;;;24.70;16.20;;;;;;;9.94;69.94;98580.27;451387;1256;140022;-57
2024/02/25 17:39:04;;;;;;;21.90;17.20;;;;;;;9.77;70.47;98566.62;451515;1254;138933;-57
2024/02/25 17:49:11;;;;;;;17.50;14.00;;;;;;;9.63;70.99;98565.47;451565;1254;139288;-57
2024/02/25 17:59:18;;;;;;;18.70;13.50;;;;;;;9.49;71.56;98557.23;451639;1254;139131;-59
2024/02/25 18:09:26;;;;;;;17.60;11.60;;;;;;;9.38;72.13;98562.42;451381;1254;138606;-59
2024/02/25 18:19:32;;;;;;;21.70;14.40;;;;;;;9.29;72.87;98560.50;451439;1253;140072;-58
2024/02/25 18:29:38;;;;;;;26.90;16.70;;;;;;;9.16;73.51;98558.65;451491;1255;139221;-58
2024/02/25 18:39:44;;;;;;;32.60;22.20;;;;;;;9.07;74.18;98557.55;447308;1255;5126020;-64
2024/02/25 18:49:50;;;;;;;29.40;20.90;;;;;;;8.85;74.82;98560.09;451262;1254;140067;-65
2024/02/25 18:59:55;;;;;;;27.10;18.20;;;;;;;8.54;75.38;98559.27;451436;1253;139610;-65
2024/02/25 19:10:03;;;;;;;30.30;17.20;;;;;;;8.12;76.07;98556.48;451565;1254;140372;-64
2024/02/25 19:20:09;;;;;;;;;;;;;;;7.66;76.49;98562.08;451358;1256;140144;-68
2024/02/25 19:30:18;;;;;;;23.50;16.80;;;;;;;7.39;77.38;98566.15;451492;1255;125317;-68
2024/02/25 19:40:24;;;;;;;25.20;17.40;;;;;;;7.16;78.41;98564.00;451156;1254;139334;-57
2024/02/25 19:50:31;;;;;;;22.40;14.30;;;;;;;6.96;79.11;98568.10;451174;1255;140708;-58
2024/02/25 20:00:37;;;;;;;22.10;16.70;;;;;;;6.79;79.97;98570.06;451371;1254;139042;-58
2024/02/25 20:10:43;;;;;;;25.90;15.60;;;;;;;6.63;80.69;98569.00;451309;1253;140999;-59
2024/02/25 20:20:50;;;;;;;27.50;19.40;;;;;;;6.34;81.10;98564.88;451514;1255;139316;-58
2024/02/25 20:30:56;;;;;;;23.10;17.40;;;;;;;6.03;81.82;98566.44;451588;1254;139273;-59
2024/02/25 20:41:03;;;;;;;23.10;16.30;;;;;;;5.83;82.75;98561.41;451218;1254;139220;-58
2024/02/25 20:51:08;;;;;;;;;;;;;;;5.65;83.11;98562.83;451241;1255;139637;-59
2024/02/25 21:01:16;;;;;;;27.80;18.00;;;;;;;5.38;83.68;98555.38;451226;1254;125715;-58
2024/02/25 21:11:22;;;;;;;29.60;18.30;;;;;;;5.25;84.55;98561.48;451270;1254;139715;-65
2024/02/25 21:21:28;;;;;;;23.80;13.20;;;;;;;5.16;84.94;98556.98;451363;1253;141228;-65
2024/02/25 21:31:34;;;;;;;17.70;10.60;;;;;;;5.09;85.03;98546.10;451284;1254;140061;-64
2024/02/25 21:41:40;;;;;;;31.50;17.20;;;;;;;4.98;85.13;98541.52;451331;1254;139051;-65
2024/02/25 21:51:48;;;;;;;21.90;15.20;;;;;;;4.74;85.22;98538.44;451252;1254;139969;-68
2024/02/25 22:01:55;;;;;;;23.20;14.80;;;;;;;4.49;85.64;98527.98;451268;1253;139917;-68
2024/02/25 22:12:02;;;;;;;19.40;13.60;;;;;;;4.24;86.13;98527.27;451361;1254;139587;-65
2024/02/25 22:22:08;;;;;;;19.70;12.10;;;;;;;4.03;86.79;98530.01;451351;1254;139263;-65
2024/02/25 22:32:14;;;;;;;17.50;13.30;;;;;;;3.95;88.22;98537.49;451200;1254;139304;-65
2024/02/25 22:42:20;;;;;;;22.20;13.20;;;;;;;3.95;88.69;98536.15;451302;1254;140135;-63
2024/02/25 22:52:28;;;;;;;27.00;16.80;;;;;;;3.89;89.05;98530.36;451231;1254;139522;-65
2024/02/25 23:02:34;;;;;;;22.20;14.30;;;;;;;3.71;88.31;98529.23;451306;1254;139039;-64
2024/02/25 23:12:41;;;;;;;21.70;13.80;;;;;;;3.45;88.94;98526.27;451417;1254;139042;-65
2024/02/25 23:22:47;;;;;;;21.60;15.50;;;;;;;3.37;90.35;98520.47;451243;1254;139815;-73
2024/02/25 23:32:53;;;;;;;25.60;16.80;;;;;;;3.26;90.38;98524.98;451216;1254;139600;-60
2024/02/25 23:42:59;;;;;;;27.90;20.20;;;;;;;3.17;91.76;98527.69;451448;1253;139244;-72
2024/02/25 23:53:07;;;;;;;27.80;18.00;;;;;;;3.15;92.78;98542.11;451318;1254;139945;-71
